Terminal Aerodrome Forecast
Issued by NWS Amarillo, TX

Home | Current Version | Previous Version | Text Only | Print | Product List | Glossary On
Versions: 1 2 3 4 5 6 7 8 9 10 11 12 13 14
000
FTUS44 KAMA 211100
TAFAMA
TAF
KAMA 211135Z 2112/2212 VRB04KT P6SM SCT120
     FM211700 19013KT P6SM SCT050 BKN250
     FM220000 17010KT P6SM BKN050=

USA.gov is the U.S. government's official web portal to all federal, state and local government web resources and services.